sensor_id;sensor_type;location;lat;lon;timestamp;P1;durP1;ratioP1;P2;durP2;ratioP2
68449;SDS011;67758;39.572;2.652;2023-04-20T00:01:51;8.93;;;2.60;;
68449;SDS011;67758;39.572;2.652;2023-04-20T00:04:17;6.32;;;2.35;;
68449;SDS011;67758;39.572;2.652;2023-04-20T00:06:42;7.10;;;2.40;;
68449;SDS011;67758;39.572;2.652;2023-04-20T00:09:12;7.18;;;3.15;;
68449;SDS011;67758;39.572;2.652;2023-04-20T00:11:39;8.10;;;2.73;;
68449;SDS011;67758;39.572;2.652;2023-04-20T00:14:05;7.93;;;2.60;;
68449;SDS011;67758;39.572;2.652;2023-04-20T00:16:31;6.40;;;2.90;;
68449;SDS011;67758;39.572;2.652;2023-04-20T00:18:58;8.40;;;2.53;;
68449;SDS011;67758;39.572;2.652;2023-04-20T00:21:24;6.93;;;2.83;;
68449;SDS011;67758;39.572;2.652;2023-04-20T00:23:50;7.85;;;2.30;;
68449;SDS011;67758;39.572;2.652;2023-04-20T00:26:16;6.38;;;2.58;;
68449;SDS011;67758;39.572;2.652;2023-04-20T00:28:42;6.82;;;2.70;;
68449;SDS011;67758;39.572;2.652;2023-04-20T00:31:08;8.63;;;2.33;;
68449;SDS011;67758;39.572;2.652;2023-04-20T00:33:34;7.10;;;2.60;;
68449;SDS011;67758;39.572;2.652;2023-04-20T00:36:00;7.73;;;2.50;;
68449;SDS011;67758;39.572;2.652;2023-04-20T00:38:26;9.00;;;2.63;;
68449;SDS011;67758;39.572;2.652;2023-04-20T00:40:54;6.32;;;2.40;;
68449;SDS011;67758;39.572;2.652;2023-04-20T00:43:20;6.37;;;2.27;;
68449;SDS011;67758;39.572;2.652;2023-04-20T00:45:46;6.88;;;2.30;;
68449;SDS011;67758;39.572;2.652;2023-04-20T00:48:12;8.80;;;2.90;;
68449;SDS011;67758;39.572;2.652;2023-04-20T00:50:38;7.25;;;3.00;;
68449;SDS011;67758;39.572;2.652;2023-04-20T00:53:04;7.22;;;2.67;;
68449;SDS011;67758;39.572;2.652;2023-04-20T00:55:31;7.67;;;2.87;;
68449;SDS011;67758;39.572;2.652;2023-04-20T00:57:57;7.50;;;2.88;;
68449;SDS011;67758;39.572;2.652;2023-04-20T01:00:23;6.15;;;2.45;;
68449;SDS011;67758;39.572;2.652;2023-04-20T01:02:49;9.30;;;2.60;;
68449;SDS011;67758;39.572;2.652;2023-04-20T01:05:15;7.03;;;2.55;;
68449;SDS011;67758;39.572;2.652;2023-04-20T01:07:41;8.05;;;2.65;;
68449;SDS011;67758;39.572;2.652;2023-04-20T01:10:07;7.47;;;2.27;;
68449;SDS011;67758;39.572;2.652;2023-04-20T01:12:33;7.00;;;2.40;;
68449;SDS011;67758;39.572;2.652;2023-04-20T01:15:01;6.72;;;2.50;;
68449;SDS011;67758;39.572;2.652;2023-04-20T01:17:27;8.77;;;2.70;;
68449;SDS011;67758;39.572;2.652;2023-04-20T01:19:53;6.00;;;2.30;;
68449;SDS011;67758;39.572;2.652;2023-04-20T01:22:19;6.95;;;2.10;;
68449;SDS011;67758;39.572;2.652;2023-04-20T01:24:45;8.30;;;2.30;;
68449;SDS011;67758;39.572;2.652;2023-04-20T01:27:12;6.47;;;1.92;;
68449;SDS011;67758;39.572;2.652;2023-04-20T01:29:40;6.75;;;1.90;;
68449;SDS011;67758;39.572;2.652;2023-04-20T01:32:06;6.73;;;2.20;;
68449;SDS011;67758;39.572;2.652;2023-04-20T01:34:32;7.57;;;2.67;;
68449;SDS011;67758;39.572;2.652;2023-04-20T01:36:57;7.45;;;1.80;;
68449;SDS011;67758;39.572;2.652;2023-04-20T01:39:23;7.28;;;2.10;;
68449;SDS011;67758;39.572;2.652;2023-04-20T01:41:49;5.87;;;1.90;;
68449;SDS011;67758;39.572;2.652;2023-04-20T01:44:15;7.72;;;2.17;;
68449;SDS011;67758;39.572;2.652;2023-04-20T01:46:41;6.45;;;1.67;;
68449;SDS011;67758;39.572;2.652;2023-04-20T01:49:07;7.20;;;1.83;;
68449;SDS011;67758;39.572;2.652;2023-04-20T01:51:33;6.32;;;1.83;;
68449;SDS011;67758;39.572;2.652;2023-04-20T01:53:59;5.97;;;1.88;;
68449;SDS011;67758;39.572;2.652;2023-04-20T01:56:26;5.10;;;1.80;;
68449;SDS011;67758;39.572;2.652;2023-04-20T01:58:51;6.93;;;1.70;;
68449;SDS011;67758;39.572;2.652;2023-04-20T02:01:17;5.20;;;1.80;;
68449;SDS011;67758;39.572;2.652;2023-04-20T02:03:43;5.33;;;1.73;;
68449;SDS011;67758;39.572;2.652;2023-04-20T02:06:08;5.93;;;1.87;;
68449;SDS011;67758;39.572;2.652;2023-04-20T02:08:34;5.13;;;1.90;;
68449;SDS011;67758;39.572;2.652;2023-04-20T02:11:00;6.40;;;1.83;;
68449;SDS011;67758;39.572;2.652;2023-04-20T02:13:25;8.85;;;1.98;;
68449;SDS011;67758;39.572;2.652;2023-04-20T02:15:52;5.05;;;1.90;;
68449;SDS011;67758;39.572;2.652;2023-04-20T02:18:17;5.33;;;1.83;;
68449;SDS011;67758;39.572;2.652;2023-04-20T02:20:43;5.35;;;1.73;;
68449;SDS011;67758;39.572;2.652;2023-04-20T02:23:09;5.77;;;2.00;;
68449;SDS011;67758;39.572;2.652;2023-04-20T02:25:35;7.72;;;2.13;;
68449;SDS011;67758;39.572;2.652;2023-04-20T02:28:01;7.28;;;2.40;;
68449;SDS011;67758;39.572;2.652;2023-04-20T02:30:27;5.83;;;1.60;;
68449;SDS011;67758;39.572;2.652;2023-04-20T02:32:52;5.30;;;1.75;;
68449;SDS011;67758;39.572;2.652;2023-04-20T02:35:18;5.53;;;1.93;;
68449;SDS011;67758;39.572;2.652;2023-04-20T02:37:44;7.53;;;2.00;;
68449;SDS011;67758;39.572;2.652;2023-04-20T02:40:10;5.73;;;1.83;;
68449;SDS011;67758;39.572;2.652;2023-04-20T02:42:36;7.63;;;1.90;;
68449;SDS011;67758;39.572;2.652;2023-04-20T02:45:02;5.57;;;1.90;;
68449;SDS011;67758;39.572;2.652;2023-04-20T02:47:28;5.33;;;1.83;;
68449;SDS011;67758;39.572;2.652;2023-04-20T02:49:54;9.05;;;2.17;;
68449;SDS011;67758;39.572;2.652;2023-04-20T02:52:20;6.63;;;2.10;;
68449;SDS011;67758;39.572;2.652;2023-04-20T02:54:45;7.55;;;1.77;;
68449;SDS011;67758;39.572;2.652;2023-04-20T02:57:11;5.47;;;1.60;;
68449;SDS011;67758;39.572;2.652;2023-04-20T02:59:37;6.53;;;2.10;;
68449;SDS011;67758;39.572;2.652;2023-04-20T03:02:03;6.65;;;1.80;;
68449;SDS011;67758;39.572;2.652;2023-04-20T03:04:29;6.40;;;1.83;;
68449;SDS011;67758;39.572;2.652;2023-04-20T03:06:56;5.03;;;1.70;;
68449;SDS011;67758;39.572;2.652;2023-04-20T03:09:22;5.55;;;1.80;;
68449;SDS011;67758;39.572;2.652;2023-04-20T03:11:49;6.43;;;2.30;;
68449;SDS011;67758;39.572;2.652;2023-04-20T03:14:14;7.53;;;2.40;;
68449;SDS011;67758;39.572;2.652;2023-04-20T03:16:41;6.90;;;2.60;;
68449;SDS011;67758;39.572;2.652;2023-04-20T03:19:06;8.35;;;2.70;;
68449;SDS011;67758;39.572;2.652;2023-04-20T03:21:32;7.30;;;2.67;;
68449;SDS011;67758;39.572;2.652;2023-04-20T03:23:58;7.90;;;2.40;;
68449;SDS011;67758;39.572;2.652;2023-04-20T03:26:24;8.35;;;2.45;;
68449;SDS011;67758;39.572;2.652;2023-04-20T03:28:50;6.67;;;2.30;;
68449;SDS011;67758;39.572;2.652;2023-04-20T03:31:17;6.22;;;2.25;;
68449;SDS011;67758;39.572;2.652;2023-04-20T03:33:42;7.25;;;2.50;;
68449;SDS011;67758;39.572;2.652;2023-04-20T03:36:08;6.23;;;2.23;;
68449;SDS011;67758;39.572;2.652;2023-04-20T03:38:35;7.55;;;2.42;;
68449;SDS011;67758;39.572;2.652;2023-04-20T03:41:01;8.07;;;2.33;;
68449;SDS011;67758;39.572;2.652;2023-04-20T03:43:26;7.63;;;2.70;;
68449;SDS011;67758;39.572;2.652;2023-04-20T03:45:52;7.05;;;2.58;;
68449;SDS011;67758;39.572;2.652;2023-04-20T03:48:18;7.10;;;2.70;;
68449;SDS011;67758;39.572;2.652;2023-04-20T03:50:43;7.43;;;2.70;;
68449;SDS011;67758;39.572;2.652;2023-04-20T03:53:09;8.47;;;2.90;;
68449;SDS011;67758;39.572;2.652;2023-04-20T03:55:34;7.30;;;2.67;;
68449;SDS011;67758;39.572;2.652;2023-04-20T03:58:00;7.43;;;2.60;;
68449;SDS011;67758;39.572;2.652;2023-04-20T04:00:26;6.70;;;2.53;;
68449;SDS011;67758;39.572;2.652;2023-04-20T04:02:51;7.72;;;2.65;;
68449;SDS011;67758;39.572;2.652;2023-04-20T04:05:17;8.53;;;2.63;;
68449;SDS011;67758;39.572;2.652;2023-04-20T04:07:43;7.65;;;2.67;;
68449;SDS011;67758;39.572;2.652;2023-04-20T04:10:08;8.53;;;2.37;;
68449;SDS011;67758;39.572;2.652;2023-04-20T04:12:34;7.82;;;2.63;;
68449;SDS011;67758;39.572;2.652;2023-04-20T04:15:00;7.87;;;2.60;;
68449;SDS011;67758;39.572;2.652;2023-04-20T04:17:26;8.50;;;2.60;;
68449;SDS011;67758;39.572;2.652;2023-04-20T04:19:52;9.57;;;2.90;;
68449;SDS011;67758;39.572;2.652;2023-04-20T04:22:17;7.40;;;2.80;;
68449;SDS011;67758;39.572;2.652;2023-04-20T04:24:43;7.73;;;2.80;;
68449;SDS011;67758;39.572;2.652;2023-04-20T04:27:09;6.97;;;2.63;;
68449;SDS011;67758;39.572;2.652;2023-04-20T04:29:38;7.50;;;2.60;;
68449;SDS011;67758;39.572;2.652;2023-04-20T04:32:05;7.83;;;2.53;;
68449;SDS011;67758;39.572;2.652;2023-04-20T04:34:32;11.50;;;2.78;;
68449;SDS011;67758;39.572;2.652;2023-04-20T04:36:59;9.85;;;2.67;;
68449;SDS011;67758;39.572;2.652;2023-04-20T04:39:26;8.23;;;2.35;;
68449;SDS011;67758;39.572;2.652;2023-04-20T04:41:52;6.53;;;2.30;;
68449;SDS011;67758;39.572;2.652;2023-04-20T04:44:18;6.97;;;2.70;;
68449;SDS011;67758;39.572;2.652;2023-04-20T04:46:45;7.78;;;2.67;;
68449;SDS011;67758;39.572;2.652;2023-04-20T04:49:11;7.57;;;2.50;;
68449;SDS011;67758;39.572;2.652;2023-04-20T04:51:37;6.65;;;2.60;;
68449;SDS011;67758;39.572;2.652;2023-04-20T04:54:03;8.80;;;2.83;;
68449;SDS011;67758;39.572;2.652;2023-04-20T04:56:29;7.03;;;2.40;;
68449;SDS011;67758;39.572;2.652;2023-04-20T04:58:54;7.33;;;2.60;;
68449;SDS011;67758;39.572;2.652;2023-04-20T05:01:20;7.43;;;2.55;;
68449;SDS011;67758;39.572;2.652;2023-04-20T05:03:46;9.60;;;2.80;;
68449;SDS011;67758;39.572;2.652;2023-04-20T05:06:11;8.40;;;2.55;;
68449;SDS011;67758;39.572;2.652;2023-04-20T05:08:37;7.40;;;3.00;;
68449;SDS011;67758;39.572;2.652;2023-04-20T05:11:02;10.20;;;2.77;;
68449;SDS011;67758;39.572;2.652;2023-04-20T05:13:28;7.25;;;2.88;;
68449;SDS011;67758;39.572;2.652;2023-04-20T05:15:54;7.27;;;2.73;;
68449;SDS011;67758;39.572;2.652;2023-04-20T05:18:19;6.47;;;2.28;;
68449;SDS011;67758;39.572;2.652;2023-04-20T05:20:46;9.27;;;2.60;;
68449;SDS011;67758;39.572;2.652;2023-04-20T05:23:12;6.50;;;2.50;;
68449;SDS011;67758;39.572;2.652;2023-04-20T05:25:38;6.13;;;2.20;;
68449;SDS011;67758;39.572;2.652;2023-04-20T05:28:03;10.20;;;2.60;;
68449;SDS011;67758;39.572;2.652;2023-04-20T05:30:31;8.48;;;2.40;;
68449;SDS011;67758;39.572;2.652;2023-04-20T05:32:57;7.43;;;2.53;;
68449;SDS011;67758;39.572;2.652;2023-04-20T05:35:23;8.10;;;2.25;;
68449;SDS011;67758;39.572;2.652;2023-04-20T05:37:48;8.80;;;2.30;;
68449;SDS011;67758;39.572;2.652;2023-04-20T05:40:14;11.17;;;2.97;;
68449;SDS011;67758;39.572;2.652;2023-04-20T05:42:39;11.32;;;2.22;;
68449;SDS011;67758;39.572;2.652;2023-04-20T05:45:06;8.53;;;2.40;;
68449;SDS011;67758;39.572;2.652;2023-04-20T05:47:32;12.32;;;2.53;;
68449;SDS011;67758;39.572;2.652;2023-04-20T05:49:58;10.23;;;2.58;;
68449;SDS011;67758;39.572;2.652;2023-04-20T05:52:24;14.23;;;3.53;;
68449;SDS011;67758;39.572;2.652;2023-04-20T05:54:49;10.67;;;2.60;;
68449;SDS011;67758;39.572;2.652;2023-04-20T05:57:15;15.57;;;2.50;;
68449;SDS011;67758;39.572;2.652;2023-04-20T05:59:41;8.52;;;3.05;;
68449;SDS011;67758;39.572;2.652;2023-04-20T06:02:07;7.43;;;3.00;;
68449;SDS011;67758;39.572;2.652;2023-04-20T06:04:32;9.60;;;3.40;;
68449;SDS011;67758;39.572;2.652;2023-04-20T06:06:58;10.07;;;2.77;;
68449;SDS011;67758;39.572;2.652;2023-04-20T06:09:24;8.63;;;3.00;;
68449;SDS011;67758;39.572;2.652;2023-04-20T06:11:50;11.65;;;3.80;;
68449;SDS011;67758;39.572;2.652;2023-04-20T06:14:15;11.83;;;3.40;;
68449;SDS011;67758;39.572;2.652;2023-04-20T06:16:41;8.93;;;3.83;;
68449;SDS011;67758;39.572;2.652;2023-04-20T06:19:07;9.90;;;3.00;;
68449;SDS011;67758;39.572;2.652;2023-04-20T06:21:33;12.07;;;3.50;;
68449;SDS011;67758;39.572;2.652;2023-04-20T06:23:59;14.77;;;4.03;;
68449;SDS011;67758;39.572;2.652;2023-04-20T06:26:24;8.97;;;3.63;;
68449;SDS011;67758;39.572;2.652;2023-04-20T06:28:50;10.43;;;2.90;;
68449;SDS011;67758;39.572;2.652;2023-04-20T06:31:17;16.70;;;3.38;;
68449;SDS011;67758;39.572;2.652;2023-04-20T06:33:44;12.63;;;3.60;;
68449;SDS011;67758;39.572;2.652;2023-04-20T06:36:09;15.77;;;3.90;;
68449;SDS011;67758;39.572;2.652;2023-04-20T06:38:35;18.23;;;3.50;;
68449;SDS011;67758;39.572;2.652;2023-04-20T06:41:01;10.10;;;3.50;;
68449;SDS011;67758;39.572;2.652;2023-04-20T06:43:30;13.98;;;3.47;;
68449;SDS011;67758;39.572;2.652;2023-04-20T06:45:55;11.32;;;3.72;;
68449;SDS011;67758;39.572;2.652;2023-04-20T06:48:21;13.43;;;4.10;;
68449;SDS011;67758;39.572;2.652;2023-04-20T06:50:47;7.63;;;3.20;;
68449;SDS011;67758;39.572;2.652;2023-04-20T06:53:22;11.63;;;3.87;;
68449;SDS011;67758;39.572;2.652;2023-04-20T06:55:48;13.88;;;3.80;;
68449;SDS011;67758;39.572;2.652;2023-04-20T06:58:13;10.43;;;3.60;;
68449;SDS011;67758;39.572;2.652;2023-04-20T07:00:39;12.23;;;3.80;;
68449;SDS011;67758;39.572;2.652;2023-04-20T07:03:05;8.60;;;3.03;;
68449;SDS011;67758;39.572;2.652;2023-04-20T07:05:31;11.17;;;3.60;;
68449;SDS011;67758;39.572;2.652;2023-04-20T07:07:57;10.77;;;3.25;;
68449;SDS011;67758;39.572;2.652;2023-04-20T07:10:22;8.83;;;3.10;;
68449;SDS011;67758;39.572;2.652;2023-04-20T07:12:48;14.55;;;3.13;;
68449;SDS011;67758;39.572;2.652;2023-04-20T07:15:14;12.50;;;3.80;;
68449;SDS011;67758;39.572;2.652;2023-04-20T07:17:39;8.50;;;3.13;;
68449;SDS011;67758;39.572;2.652;2023-04-20T07:20:05;10.47;;;3.77;;
68449;SDS011;67758;39.572;2.652;2023-04-20T07:22:38;13.68;;;3.10;;
68449;SDS011;67758;39.572;2.652;2023-04-20T07:25:05;12.65;;;3.22;;
68449;SDS011;67758;39.572;2.652;2023-04-20T07:27:38;10.50;;;3.77;;
68449;SDS011;67758;39.572;2.652;2023-04-20T07:30:05;9.93;;;3.53;;
68449;SDS011;67758;39.572;2.652;2023-04-20T07:32:33;10.13;;;3.90;;
68449;SDS011;67758;39.572;2.652;2023-04-20T07:35:00;29.27;;;4.55;;
68449;SDS011;67758;39.572;2.652;2023-04-20T07:37:25;11.80;;;4.70;;
68449;SDS011;67758;39.572;2.652;2023-04-20T07:39:51;10.60;;;4.40;;
68449;SDS011;67758;39.572;2.652;2023-04-20T07:42:18;9.70;;;3.65;;
68449;SDS011;67758;39.572;2.652;2023-04-20T07:44:46;11.53;;;4.40;;
68449;SDS011;67758;39.572;2.652;2023-04-20T07:47:12;13.10;;;5.07;;
68449;SDS011;67758;39.572;2.652;2023-04-20T07:49:39;10.25;;;3.65;;
68449;SDS011;67758;39.572;2.652;2023-04-20T07:52:05;12.70;;;4.72;;
68449;SDS011;67758;39.572;2.652;2023-04-20T07:54:31;11.93;;;4.77;;
68449;SDS011;67758;39.572;2.652;2023-04-20T07:56:57;11.90;;;4.97;;
68449;SDS011;67758;39.572;2.652;2023-04-20T07:59:23;15.95;;;5.68;;
68449;SDS011;67758;39.572;2.652;2023-04-20T08:01:49;16.02;;;6.93;;
68449;SDS011;67758;39.572;2.652;2023-04-20T08:04:15;14.50;;;6.23;;
68449;SDS011;67758;39.572;2.652;2023-04-20T08:06:41;15.02;;;4.32;;
68449;SDS011;67758;39.572;2.652;2023-04-20T08:09:07;6.43;;;2.63;;
68449;SDS011;67758;39.572;2.652;2023-04-20T08:11:33;9.60;;;3.13;;
68449;SDS011;67758;39.572;2.652;2023-04-20T08:13:59;6.80;;;2.67;;
68449;SDS011;67758;39.572;2.652;2023-04-20T08:16:26;9.98;;;2.97;;
68449;SDS011;67758;39.572;2.652;2023-04-20T08:19:00;7.35;;;3.03;;
68449;SDS011;67758;39.572;2.652;2023-04-20T08:21:27;8.47;;;3.10;;
68449;SDS011;67758;39.572;2.652;2023-04-20T08:23:53;10.13;;;3.60;;
68449;SDS011;67758;39.572;2.652;2023-04-20T08:26:18;7.87;;;3.10;;
68449;SDS011;67758;39.572;2.652;2023-04-20T08:28:45;10.43;;;3.60;;
68449;SDS011;67758;39.572;2.652;2023-04-20T08:31:11;8.85;;;2.38;;
68449;SDS011;67758;39.572;2.652;2023-04-20T08:33:38;8.33;;;2.60;;
68449;SDS011;67758;39.572;2.652;2023-04-20T08:36:03;10.15;;;2.85;;
68449;SDS011;67758;39.572;2.652;2023-04-20T08:38:29;6.73;;;3.10;;
68449;SDS011;67758;39.572;2.652;2023-04-20T08:40:55;6.75;;;2.88;;
68449;SDS011;67758;39.572;2.652;2023-04-20T08:43:20;8.90;;;2.87;;
68449;SDS011;67758;39.572;2.652;2023-04-20T08:45:47;10.73;;;3.10;;
68449;SDS011;67758;39.572;2.652;2023-04-20T08:48:16;6.25;;;2.47;;
68449;SDS011;67758;39.572;2.652;2023-04-20T08:50:45;5.97;;;2.20;;
68449;SDS011;67758;39.572;2.652;2023-04-20T08:53:12;7.13;;;2.40;;
68449;SDS011;67758;39.572;2.652;2023-04-20T08:55:38;6.35;;;2.17;;
68449;SDS011;67758;39.572;2.652;2023-04-20T08:58:03;7.63;;;2.37;;
68449;SDS011;67758;39.572;2.652;2023-04-20T09:00:29;7.43;;;2.25;;
68449;SDS011;67758;39.572;2.652;2023-04-20T09:02:55;9.83;;;2.40;;
68449;SDS011;67758;39.572;2.652;2023-04-20T09:05:26;9.40;;;2.53;;
68449;SDS011;67758;39.572;2.652;2023-04-20T09:07:54;8.65;;;3.13;;
68449;SDS011;67758;39.572;2.652;2023-04-20T09:10:21;6.93;;;2.25;;
68449;SDS011;67758;39.572;2.652;2023-04-20T09:12:51;9.25;;;3.50;;
68449;SDS011;67758;39.572;2.652;2023-04-20T09:15:24;7.10;;;2.30;;
68449;SDS011;67758;39.572;2.652;2023-04-20T09:17:51;8.88;;;2.47;;
68449;SDS011;67758;39.572;2.652;2023-04-20T09:20:25;6.63;;;2.80;;
68449;SDS011;67758;39.572;2.652;2023-04-20T09:22:52;11.05;;;3.30;;
68449;SDS011;67758;39.572;2.652;2023-04-20T09:25:18;6.20;;;2.23;;
68449;SDS011;67758;39.572;2.652;2023-04-20T09:27:58;8.38;;;2.13;;
68449;SDS011;67758;39.572;2.652;2023-04-20T09:30:24;6.97;;;2.15;;
68449;SDS011;67758;39.572;2.652;2023-04-20T09:33:01;6.35;;;2.03;;
68449;SDS011;67758;39.572;2.652;2023-04-20T09:35:27;6.15;;;2.25;;
68449;SDS011;67758;39.572;2.652;2023-04-20T09:37:53;8.50;;;2.00;;
68449;SDS011;67758;39.572;2.652;2023-04-20T09:40:19;6.97;;;1.90;;
68449;SDS011;67758;39.572;2.652;2023-04-20T09:42:47;7.25;;;2.38;;
68449;SDS011;67758;39.572;2.652;2023-04-20T09:45:15;7.65;;;2.22;;
68449;SDS011;67758;39.572;2.652;2023-04-20T09:47:41;7.65;;;2.53;;
68449;SDS011;67758;39.572;2.652;2023-04-20T09:50:11;8.15;;;2.25;;
68449;SDS011;67758;39.572;2.652;2023-04-20T09:52:37;7.50;;;2.43;;
68449;SDS011;67758;39.572;2.652;2023-04-20T09:55:06;9.45;;;2.33;;
68449;SDS011;67758;39.572;2.652;2023-04-20T09:57:34;7.88;;;2.40;;
68449;SDS011;67758;39.572;2.652;2023-04-20T10:00:00;7.05;;;2.20;;
68449;SDS011;67758;39.572;2.652;2023-04-20T10:02:26;5.82;;;2.00;;
68449;SDS011;67758;39.572;2.652;2023-04-20T10:04:52;12.67;;;3.87;;
68449;SDS011;67758;39.572;2.652;2023-04-20T10:07:29;8.70;;;2.50;;
68449;SDS011;67758;39.572;2.652;2023-04-20T10:10:06;9.38;;;2.45;;
68449;SDS011;67758;39.572;2.652;2023-04-20T10:12:32;7.03;;;2.80;;
68449;SDS011;67758;39.572;2.652;2023-04-20T10:15:01;9.20;;;3.30;;
68449;SDS011;67758;39.572;2.652;2023-04-20T10:17:32;10.10;;;3.50;;
68449;SDS011;67758;39.572;2.652;2023-04-20T10:19:58;10.38;;;3.28;;
68449;SDS011;67758;39.572;2.652;2023-04-20T10:22:25;8.90;;;2.70;;
68449;SDS011;67758;39.572;2.652;2023-04-20T10:24:56;7.10;;;2.20;;
68449;SDS011;67758;39.572;2.652;2023-04-20T10:27:22;9.07;;;3.45;;
68449;SDS011;67758;39.572;2.652;2023-04-20T10:29:48;8.07;;;2.40;;
68449;SDS011;67758;39.572;2.652;2023-04-20T10:32:23;6.50;;;2.55;;
68449;SDS011;67758;39.572;2.652;2023-04-20T10:35:06;8.20;;;2.58;;
68449;SDS011;67758;39.572;2.652;2023-04-20T10:37:34;8.27;;;2.60;;
68449;SDS011;67758;39.572;2.652;2023-04-20T10:40:00;8.70;;;2.40;;
68449;SDS011;67758;39.572;2.652;2023-04-20T10:42:28;7.60;;;2.33;;
68449;SDS011;67758;39.572;2.652;2023-04-20T10:44:54;10.03;;;1.97;;
68449;SDS011;67758;39.572;2.652;2023-04-20T10:47:29;5.80;;;2.20;;
68449;SDS011;67758;39.572;2.652;2023-04-20T10:50:12;6.13;;;2.60;;
68449;SDS011;67758;39.572;2.652;2023-04-20T10:52:40;7.43;;;2.25;;
68449;SDS011;67758;39.572;2.652;2023-04-20T10:55:24;5.78;;;2.50;;
68449;SDS011;67758;39.572;2.652;2023-04-20T10:57:50;6.32;;;2.60;;
68449;SDS011;67758;39.572;2.652;2023-04-20T11:00:18;6.30;;;3.23;;
68449;SDS011;67758;39.572;2.652;2023-04-20T11:02:49;6.00;;;2.60;;
68449;SDS011;67758;39.572;2.652;2023-04-20T11:05:22;8.65;;;3.33;;
68449;SDS011;67758;39.572;2.652;2023-04-20T11:07:57;6.70;;;3.08;;
68449;SDS011;67758;39.572;2.652;2023-04-20T11:10:38;5.97;;;3.03;;
68449;SDS011;67758;39.572;2.652;2023-04-20T11:13:05;8.23;;;2.90;;
68449;SDS011;67758;39.572;2.652;2023-04-20T11:15:31;5.88;;;2.58;;
68449;SDS011;67758;39.572;2.652;2023-04-20T11:18:05;6.75;;;2.55;;
68449;SDS011;67758;39.572;2.652;2023-04-20T11:20:35;6.82;;;2.70;;
68449;SDS011;67758;39.572;2.652;2023-04-20T11:23:05;6.40;;;3.13;;
68449;SDS011;67758;39.572;2.652;2023-04-20T11:25:33;7.15;;;3.20;;
68449;SDS011;67758;39.572;2.652;2023-04-20T11:28:05;6.53;;;2.72;;
68449;SDS011;67758;39.572;2.652;2023-04-20T11:30:39;9.70;;;3.03;;
68449;SDS011;67758;39.572;2.652;2023-04-20T11:33:06;4.87;;;2.40;;
68449;SDS011;67758;39.572;2.652;2023-04-20T11:35:39;6.22;;;2.47;;
68449;SDS011;67758;39.572;2.652;2023-04-20T11:38:07;8.18;;;2.70;;
68449;SDS011;67758;39.572;2.652;2023-04-20T11:40:34;7.00;;;2.70;;
68449;SDS011;67758;39.572;2.652;2023-04-20T11:49:10;6.28;;;2.83;;
68449;SDS011;67758;39.572;2.652;2023-04-20T11:51:39;6.85;;;2.92;;
68449;SDS011;67758;39.572;2.652;2023-04-20T11:54:09;7.72;;;2.63;;
68449;SDS011;67758;39.572;2.652;2023-04-20T11:56:43;6.63;;;2.75;;
68449;SDS011;67758;39.572;2.652;2023-04-20T11:59:26;5.77;;;2.50;;
68449;SDS011;67758;39.572;2.652;2023-04-20T12:01:59;6.10;;;2.90;;
68449;SDS011;67758;39.572;2.652;2023-04-20T12:04:31;7.75;;;3.30;;
68449;SDS011;67758;39.572;2.652;2023-04-20T12:06:58;8.35;;;3.40;;
68449;SDS011;67758;39.572;2.652;2023-04-20T12:09:25;13.00;;;6.65;;
68449;SDS011;67758;39.572;2.652;2023-04-20T12:11:51;8.57;;;2.93;;
68449;SDS011;67758;39.572;2.652;2023-04-20T12:14:17;8.73;;;3.45;;
68449;SDS011;67758;39.572;2.652;2023-04-20T12:16:42;6.53;;;2.50;;
68449;SDS011;67758;39.572;2.652;2023-04-20T12:19:08;7.90;;;2.45;;
68449;SDS011;67758;39.572;2.652;2023-04-20T12:21:34;7.30;;;2.50;;
68449;SDS011;67758;39.572;2.652;2023-04-20T12:24:00;6.45;;;2.45;;
68449;SDS011;67758;39.572;2.652;2023-04-20T12:26:27;7.47;;;3.17;;
68449;SDS011;67758;39.572;2.652;2023-04-20T12:28:52;10.13;;;2.70;;
68449;SDS011;67758;39.572;2.652;2023-04-20T12:31:21;12.73;;;4.53;;
68449;SDS011;67758;39.572;2.652;2023-04-20T12:33:48;14.52;;;5.90;;
68449;SDS011;67758;39.572;2.652;2023-04-20T12:36:17;8.77;;;3.85;;
68449;SDS011;67758;39.572;2.652;2023-04-20T12:38:42;6.23;;;2.93;;
68449;SDS011;67758;39.572;2.652;2023-04-20T12:41:12;8.18;;;3.20;;
68449;SDS011;67758;39.572;2.652;2023-04-20T12:43:39;8.82;;;3.47;;
68449;SDS011;67758;39.572;2.652;2023-04-20T12:46:04;10.97;;;4.33;;
68449;SDS011;67758;39.572;2.652;2023-04-20T12:48:30;8.40;;;3.40;;
68449;SDS011;67758;39.572;2.652;2023-04-20T12:50:55;6.80;;;2.27;;
68449;SDS011;67758;39.572;2.652;2023-04-20T12:53:21;7.43;;;3.00;;
68449;SDS011;67758;39.572;2.652;2023-04-20T12:55:47;9.45;;;3.60;;
68449;SDS011;67758;39.572;2.652;2023-04-20T12:58:12;6.80;;;2.63;;
68449;SDS011;67758;39.572;2.652;2023-04-20T13:00:40;6.68;;;2.22;;
68449;SDS011;67758;39.572;2.652;2023-04-20T13:03:09;6.25;;;2.45;;
68449;SDS011;67758;39.572;2.652;2023-04-20T13:05:34;6.15;;;2.58;;
68449;SDS011;67758;39.572;2.652;2023-04-20T13:08:00;6.60;;;2.33;;
68449;SDS011;67758;39.572;2.652;2023-04-20T13:10:27;7.50;;;2.20;;
68449;SDS011;67758;39.572;2.652;2023-04-20T13:12:52;7.70;;;2.50;;
68449;SDS011;67758;39.572;2.652;2023-04-20T13:15:18;6.17;;;1.90;;
68449;SDS011;67758;39.572;2.652;2023-04-20T13:17:47;6.85;;;2.55;;
68449;SDS011;67758;39.572;2.652;2023-04-20T13:20:12;6.43;;;2.37;;
68449;SDS011;67758;39.572;2.652;2023-04-20T13:22:38;8.23;;;3.50;;
68449;SDS011;67758;39.572;2.652;2023-04-20T13:25:04;5.65;;;2.00;;
68449;SDS011;67758;39.572;2.652;2023-04-20T13:27:30;8.02;;;2.90;;
68449;SDS011;67758;39.572;2.652;2023-04-20T13:29:56;6.13;;;2.43;;
68449;SDS011;67758;39.572;2.652;2023-04-20T13:32:24;8.90;;;3.30;;
68449;SDS011;67758;39.572;2.652;2023-04-20T13:34:50;8.50;;;2.47;;
68449;SDS011;67758;39.572;2.652;2023-04-20T13:37:16;5.80;;;2.03;;
68449;SDS011;67758;39.572;2.652;2023-04-20T13:39:42;9.23;;;2.37;;
68449;SDS011;67758;39.572;2.652;2023-04-20T13:42:08;9.93;;;3.15;;
68449;SDS011;67758;39.572;2.652;2023-04-20T13:44:33;5.63;;;2.30;;
68449;SDS011;67758;39.572;2.652;2023-04-20T13:46:59;7.00;;;2.10;;
68449;SDS011;67758;39.572;2.652;2023-04-20T13:49:25;6.45;;;2.00;;
68449;SDS011;67758;39.572;2.652;2023-04-20T13:51:50;6.73;;;2.17;;
68449;SDS011;67758;39.572;2.652;2023-04-20T13:54:16;6.23;;;1.90;;
68449;SDS011;67758;39.572;2.652;2023-04-20T13:56:45;7.38;;;1.70;;
68449;SDS011;67758;39.572;2.652;2023-04-20T13:59:11;8.55;;;2.20;;
68449;SDS011;67758;39.572;2.652;2023-04-20T14:01:36;6.50;;;1.90;;
68449;SDS011;67758;39.572;2.652;2023-04-20T14:04:03;6.00;;;1.80;;
68449;SDS011;67758;39.572;2.652;2023-04-20T14:06:32;5.93;;;1.70;;
68449;SDS011;67758;39.572;2.652;2023-04-20T14:08:59;8.83;;;2.00;;
68449;SDS011;67758;39.572;2.652;2023-04-20T14:11:25;6.47;;;1.80;;
68449;SDS011;67758;39.572;2.652;2023-04-20T14:13:51;5.50;;;1.70;;
68449;SDS011;67758;39.572;2.652;2023-04-20T14:16:19;5.57;;;1.90;;
68449;SDS011;67758;39.572;2.652;2023-04-20T14:18:45;5.30;;;1.80;;
68449;SDS011;67758;39.572;2.652;2023-04-20T14:21:11;6.25;;;1.77;;
68449;SDS011;67758;39.572;2.652;2023-04-20T14:23:36;9.10;;;1.57;;
68449;SDS011;67758;39.572;2.652;2023-04-20T14:26:03;5.93;;;1.88;;
68449;SDS011;67758;39.572;2.652;2023-04-20T14:28:29;4.65;;;1.58;;
68449;SDS011;67758;39.572;2.652;2023-04-20T14:30:56;8.68;;;2.13;;
68449;SDS011;67758;39.572;2.652;2023-04-20T14:33:26;6.55;;;2.10;;
68449;SDS011;67758;39.572;2.652;2023-04-20T14:35:52;5.65;;;2.33;;
68449;SDS011;67758;39.572;2.652;2023-04-20T14:38:20;5.90;;;1.90;;
68449;SDS011;67758;39.572;2.652;2023-04-20T14:41:00;8.70;;;2.40;;
68449;SDS011;67758;39.572;2.652;2023-04-20T14:43:56;4.75;;;2.03;;
68449;SDS011;67758;39.572;2.652;2023-04-20T14:46:39;8.52;;;3.00;;
68449;SDS011;67758;39.572;2.652;2023-04-20T14:49:35;7.47;;;2.15;;
68449;SDS011;67758;39.572;2.652;2023-04-20T14:52:28;7.00;;;2.53;;